Geronimo — PD6553 — position and weather

sailwx.info

Track history (hours):
 
Tides and Currents Weather Stations Pressure Air Temp Water Temp Dewpoint Dewpoint Depression Visibility Wind Speed Wind Dir Waves Ship Positions

Geronimo

Last reported at 2016-Jun-30 20:13 UTC. Time now 2016-Jun-30 21:22 UTC.
Position N 38°46' E 001°26'.

Length 20 m; draft 2.9 m.

Type: Sailing vessel. MMSI: 244620501.

Date/timePositionNaut miles runAvg speedWind from/ knotsBaromVisibWave heightAir tempDewpointWater temp
2016-Jun-30 20:13N 38°46' E 001°26'0 0.0
2016-Jun-30 19:32N 38°46' E 001°26'0 0.0
2016-Jun-30 18:34N 38°46' E 001°26'0 0.0
2016-Jun-30 17:33N 38°46' E 001°26'0 0.0
2016-Jun-30 16:28N 38°46' E 001°26'0 0.0
2016-Jun-30 15:19N 38°46' E 001°26'0 0.0
2016-Jun-30 14:29N 38°46' E 001°26'0 0.0
2016-Jun-30 13:25N 38°46' E 001°26'4 4.0
2016-Jun-30 12:18N 38°48' E 001°22'4 2.3
2016-Jun-30 10:22N 38°52' E 001°18'0 0.0
2016-Jun-30 09:24N 38°52' E 001°18'0 0.0
2016-Jun-30 08:26N 38°52' E 001°18'  
2016-Jun-26 00:10N 38°44' E 001°25'0 0.0
2016-Jun-25 23:31N 38°44' E 001°25'0 0.0
2016-Jun-25 22:25N 38°44' E 001°25'0 0.0
2016-Jun-25 21:33N 38°44' E 001°25'0 0.0
2016-Jun-25 20:25N 38°44' E 001°25'0 0.0
2016-Jun-25 19:33N 38°44' E 001°25'0 0.0
2016-Jun-25 17:24N 38°44' E 001°25'1 0.9
2016-Jun-25 16:33N 38°45' E 001°26'0 0.1
2016-Jun-25 14:10N 38°45' E 001°26'9 0.3
2016-Jun-24 12:14N 38°52' E 001°19'0 0.0
2016-Jun-24 11:23N 38°52' E 001°19'0 0.2
2016-Jun-24 09:23N 38°52' E 001°19'4 2.9
2016-Jun-24 08:08N 38°50' E 001°23'0 0.0
2016-Jun-24 07:29N 38°50' E 001°23'0 0.0
2016-Jun-24 04:31N 38°50' E 001°23'0 0.0
2016-Jun-23 20:27N 38°50' E 001°23'0 0.0
2016-Jun-23 19:33N 38°50' E 001°23'0 0.0
2016-Jun-23 18:25N 38°50' E 001°23'0 0.0
2016-Jun-23 17:24N 38°50' E 001°23'0 0.0
2016-Jun-23 16:24N 38°50' E 001°23'0 0.0
2016-Jun-23 15:23N 38°50' E 001°23'0 0.0
2016-Jun-23 14:30N 38°50' E 001°23'0 0.0
2016-Jun-23 13:22N 38°50' E 001°23'2 2.3
2016-Jun-23 12:33N 38°50' E 001°26'  
2016-Jun-21 08:05N 38°49' E 001°24'2 1.2
2016-Jun-21 06:32N 38°50' E 001°23'0 0.0
2016-Jun-21 03:32N 38°50' E 001°23'0 0.0
2016-Jun-21 01:21N 38°50' E 001°23'  
Track history (hours):
 
Tides and Currents Weather Stations Pressure Air Temp Water Temp Dewpoint Dewpoint Depression Visibility Wind Speed Wind Dir Waves Ship Positions

Geronimo

Last reported at 2016-Jun-30 20:13 UTC. Time now 2016-Jun-30 21:22 UTC.
Position N 38°46' E 001°26'.

Length 20 m; draft 2.9 m.

Type: Sailing vessel. MMSI: 244620501.

Date/timePositionNaut miles runAvg speedWind from/ knotsBaromVisibWave heightAir tempDewpointWater temp
2016-Jun-30 20:13N 38°46' E 001°26'0 0.0
2016-Jun-30 19:32N 38°46' E 001°26'0 0.0
2016-Jun-30 18:34N 38°46' E 001°26'0 0.0
2016-Jun-30 17:33N 38°46' E 001°26'0 0.0
2016-Jun-30 16:28N 38°46' E 001°26'0 0.0
2016-Jun-30 15:19N 38°46' E 001°26'0 0.0
2016-Jun-30 14:29N 38°46' E 001°26'0 0.0
2016-Jun-30 13:25N 38°46' E 001°26'4 4.0
2016-Jun-30 12:18N 38°48' E 001°22'4 2.3
2016-Jun-30 10:22N 38°52' E 001°18'0 0.0
2016-Jun-30 09:24N 38°52' E 001°18'0 0.0
2016-Jun-30 08:26N 38°52' E 001°18'  
2016-Jun-26 00:10N 38°44' E 001°25'0 0.0
2016-Jun-25 23:31N 38°44' E 001°25'0 0.0
2016-Jun-25 22:25N 38°44' E 001°25'0 0.0
2016-Jun-25 21:33N 38°44' E 001°25'0 0.0
2016-Jun-25 20:25N 38°44' E 001°25'0 0.0
2016-Jun-25 19:33N 38°44' E 001°25'0 0.0
2016-Jun-25 17:24N 38°44' E 001°25'1 0.9
2016-Jun-25 16:33N 38°45' E 001°26'0 0.1
2016-Jun-25 14:10N 38°45' E 001°26'9 0.3
2016-Jun-24 12:14N 38°52' E 001°19'0 0.0
2016-Jun-24 11:23N 38°52' E 001°19'0 0.2
2016-Jun-24 09:23N 38°52' E 001°19'4 2.9
2016-Jun-24 08:08N 38°50' E 001°23'0 0.0
2016-Jun-24 07:29N 38°50' E 001°23'0 0.0
2016-Jun-24 04:31N 38°50' E 001°23'0 0.0
2016-Jun-23 20:27N 38°50' E 001°23'0 0.0
2016-Jun-23 19:33N 38°50' E 001°23'0 0.0
2016-Jun-23 18:25N 38°50' E 001°23'0 0.0
2016-Jun-23 17:24N 38°50' E 001°23'0 0.0
2016-Jun-23 16:24N 38°50' E 001°23'0 0.0
2016-Jun-23 15:23N 38°50' E 001°23'0 0.0
2016-Jun-23 14:30N 38°50' E 001°23'0 0.0
2016-Jun-23 13:22N 38°50' E 001°23'2 2.3
2016-Jun-23 12:33N 38°50' E 001°26'  
2016-Jun-21 08:05N 38°49' E 001°24'2 1.2
2016-Jun-21 06:32N 38°50' E 001°23'0 0.0
2016-Jun-21 03:32N 38°50' E 001°23'0 0.0
2016-Jun-21 01:21N 38°50' E 001°23'  

Dump ship's entire track history